TimeIST,TemperatureF,Dew PointF,Humidity,Sea Level PressureIn,VisibilityMPH,Wind Direction,Wind SpeedMPH,Gust SpeedMPH,PrecipitationIn,Events,Conditions,WindDirDegrees,DateUTC
12:00 AM,77.0,59.0,54,30.04,1.6,Calm,Calm,-,N/A,,Haze,0,2012-10-16 18:30:00
1:00 AM,73.4,59.0,61,30.04,1.6,Calm,Calm,-,N/A,,Haze,0,2012-10-16 19:30:00
2:30 AM,74,59,51,29.96,1,Calm,Calm,,,,Haze,,2012-10-16 21:00:00
3:00 AM,73.4,60.8,65,30.01,1.6,Calm,Calm,-,N/A,,Haze,0,2012-10-16 21:30:00
4:00 AM,78.8,60.8,54,30.01,1.6,Calm,Calm,-,N/A,,Haze,0,2012-10-16 22:30:00
5:00 AM,69.8,60.8,73,30.04,1.6,Calm,Calm,-,N/A,,Haze,0,2012-10-16 23:30:00
5:30 AM,71,58,56,29.97,1,Calm,Calm,,,,Haze,,2012-10-17 00:00:00
6:00 AM,69.8,59.0,68,30.04,1.6,Calm,Calm,-,N/A,,Haze,0,2012-10-17 00:30:00
7:00 AM,71.6,59.0,64,30.04,1.6,Variable,1.2,-,N/A,,Haze,0,2012-10-17 01:30:00
8:00 AM,75.2,59.0,57,30.06,1.6,Calm,Calm,-,N/A,,Haze,0,2012-10-17 02:30:00
8:30 AM,77,59,43,30.00,1,Calm,Calm,,,,Haze,,2012-10-17 03:00:00
11:00 AM,87.8,57.2,35,30.06,2.5,Variable,2.3,-,N/A,,Haze,0,2012-10-17 05:30:00
11:30 AM,90,57,23,29.97,2,SW,4.6,,,,Haze,230,2012-10-17 06:00:00
12:00 PM,89.6,57.2,33,30.04,2.5,Variable,3.5,-,N/A,,Haze,0,2012-10-17 06:30:00
1:00 PM,89.6,55.4,31,30.01,2.5,Variable,3.5,-,N/A,,Haze,0,2012-10-17 07:30:00
2:30 PM,94,58,20,29.88,2,SSW,5.8,,,,Haze,200,2012-10-17 09:00:00
3:00 PM,91.4,55.4,29,29.95,2.5,Variable,4.6,-,N/A,,Haze,0,2012-10-17 09:30:00
4:30 PM,89.6,55.4,31,29.95,2.5,Variable,2.3,-,N/A,,Haze,0,2012-10-17 11:00:00
5:00 PM,89.6,55.4,31,29.95,2.5,Calm,Calm,-,N/A,,Haze,0,2012-10-17 11:30:00
5:30 PM,87.8,59.0,38,29.95,2.2,Calm,Calm,-,N/A,,Haze,0,2012-10-17 12:00:00
7:00 PM,80.6,59.0,48,29.95,1.9,Calm,Calm,-,N/A,,Haze,0,2012-10-17 13:30:00
7:30 PM,82.4,59.0,45,29.98,1.9,Variable,1.2,-,N/A,,Haze,0,2012-10-17 14:00:00
8:00 PM,78.8,60.8,54,29.98,1.9,Variable,2.3,-,N/A,,Haze,0,2012-10-17 14:30:00
8:30 PM,80,64,48,29.92,1,Calm,Calm,,,,Haze,,2012-10-17 15:00:00
9:00 PM,80.6,62.6,54,29.98,1.9,Calm,Calm,-,N/A,,Haze,0,2012-10-17 15:30:00
9:30 PM,78.8,62.6,57,29.98,1.9,Calm,Calm,-,N/A,,Haze,0,2012-10-17 16:00:00
10:00 PM,77.0,62.6,61,29.98,1.9,Calm,Calm,-,N/A,,Haze,0,2012-10-17 16:30:00
11:00 PM,78.8,62.6,57,29.98,1.9,Variable,2.3,-,N/A,,Haze,0,2012-10-17 17:30:00
11:30 PM,78,58,39,29.93,1,NE,5.8,,,,Haze,50,2012-10-17 18:00:00